Time;durP1;ratioP1;P1;durP2;ratioP2;P2;SDS_P1;SDS_P2;PMS_P1;PMS_P2;Temp;Humidity;BMP_temperature;BMP_pressure;BME280_temperature;BME280_humidity;BME280_pressure;Samples;Min_cycle;Max_cycle;Signal;HPM_P1;HPM_P2
2022/03/16 00:01:13;;;;;;;20.23;9.70;;;;;;;;;;5012454;28;20026;-66
2022/03/16 00:03:38;;;;;;;19.10;9.73;;;;;;;;;;5012845;28;20488;-65
2022/03/16 00:06:04;;;;;;;19.63;9.88;;;;;;;;;;5013126;28;20037;-65
2022/03/16 00:08:31;;;;;;;16.73;9.20;;;;;;;;;;5012304;28;20037;-65
2022/03/16 00:10:58;;;;;;;20.45;9.23;;;;;;;;;;5012330;28;20474;-66
2022/03/16 00:13:23;;;;;;;17.95;9.02;;;;;;;;;;5012072;28;20026;-65
2022/03/16 00:15:49;;;;;;;20.08;9.25;;;;;;;;;;5012219;28;20032;-66
2022/03/16 00:18:14;;;;;;;20.08;9.02;;;;;;;;;;5012116;28;20032;-65
2022/03/16 00:20:39;;;;;;;19.17;9.10;;;;;;;;;;5012105;28;20030;-66
2022/03/16 00:23:05;;;;;;;21.52;9.35;;;;;;;;;;5012020;28;20556;-65
2022/03/16 00:25:33;;;;;;;19.70;8.85;;;;;;;;;;5012174;28;20441;-66
2022/03/16 00:27:59;;;;;;;18.13;9.13;;;;;;;;;;5011703;28;20062;-65
2022/03/16 00:30:24;;;;;;;18.88;8.82;;;;;;;;;;5011754;28;20037;-66
2022/03/16 00:32:50;;;;;;;16.50;8.93;;;;;;;;;;5011725;28;20030;-65
2022/03/16 00:35:15;;;;;;;21.42;8.90;;;;;;;;;;5011935;28;20048;-65
2022/03/16 00:37:41;;;;;;;18.13;9.15;;;;;;;;;;5011788;28;20449;-65
2022/03/16 00:40:09;;;;;;;17.77;8.88;;;;;;;;;;5011854;28;20053;-65
2022/03/16 00:42:34;;;;;;;17.83;8.80;;;;;;;;;;5010359;28;20030;-65
2022/03/16 00:45:00;;;;;;;16.48;8.27;;;;;;;;;;5011671;28;20299;-65
2022/03/16 00:47:26;;;;;;;16.13;8.15;;;;;;;;;;5011477;28;20445;-66
2022/03/16 00:49:52;;;;;;;22.58;9.90;;;;;;;;;;5011649;28;20038;-65
2022/03/16 00:52:17;;;;;;;14.45;7.90;;;;;;;;;;5011463;28;20025;-66
2022/03/16 00:54:42;;;;;;;17.63;8.38;;;;;;;;;;5011623;28;20036;-65
2022/03/16 00:57:08;;;;;;;19.88;8.32;;;;;;;;;;5011672;28;20026;-65
2022/03/16 00:59:33;;;;;;;16.08;8.20;;;;;;;;;;5011443;28;20033;-65
2022/03/16 01:01:59;;;;;;;17.27;8.23;;;;;;;;;;5011221;28;20050;-66
2022/03/16 01:04:24;;;;;;;17.35;8.15;;;;;;;;;;5010978;28;20462;-65
2022/03/16 01:06:53;;;;;;;14.75;8.10;;;;;;;;;;5011365;28;20080;-66
2022/03/16 01:09:18;;;;;;;16.80;8.10;;;;;;;;;;5010391;28;20508;-65
2022/03/16 01:11:44;;;;;;;18.75;8.90;;;;;;;;;;5011300;28;20022;-66
2022/03/16 01:14:09;;;;;;;16.75;8.40;;;;;;;;;;5011186;28;20052;-66
2022/03/16 01:16:36;;;;;;;17.65;8.75;;;;;;;;;;5011224;28;20057;-66
2022/03/16 01:19:02;;;;;;;17.65;8.07;;;;;;;;;;5010771;28;20038;-66
2022/03/16 01:21:27;;;;;;;15.68;8.02;;;;;;;;;;5010936;28;20057;-66
2022/03/16 01:23:53;;;;;;;17.45;8.25;;;;;;;;;;5010692;28;20037;-66
2022/03/16 01:26:18;;;;;;;17.75;8.20;;;;;;;;;;5011239;28;20041;-66
2022/03/16 01:28:44;;;;;;;17.88;8.73;;;;;;;;;;5010823;28;20091;-67
2022/03/16 01:31:09;;;;;;;16.67;8.10;;;;;;;;;;5010823;28;20196;-66
2022/03/16 01:33:35;;;;;;;17.42;8.18;;;;;;;;;;5010727;28;20026;-66
2022/03/16 01:36:00;;;;;;;17.23;7.85;;;;;;;;;;5010729;28;20050;-66
2022/03/16 01:38:26;;;;;;;17.25;7.78;;;;;;;;;;5010465;28;20037;-66
2022/03/16 01:40:51;;;;;;;15.50;8.52;;;;;;;;;;5010662;28;20052;-66
2022/03/16 01:43:17;;;;;;;17.98;8.50;;;;;;;;;;5010735;28;20036;-66
2022/03/16 01:45:50;;;;;;;14.35;7.88;;;;;;;;;;5010789;28;20022;-66
2022/03/16 01:48:16;;;;;;;17.45;8.13;;;;;;;;;;5010744;28;20042;-66
2022/03/16 01:50:41;;;;;;;20.70;7.97;;;;;;;;;;5010704;28;20061;-67
2022/03/16 01:53:07;;;;;;;13.43;7.78;;;;;;;;;;5010235;28;20038;-67
2022/03/16 01:55:32;;;;;;;16.40;7.70;;;;;;;;;;5010542;28;20104;-66
2022/03/16 01:58:00;;;;;;;16.70;8.05;;;;;;;;;;5010600;28;20022;-66
2022/03/16 02:00:25;;;;;;;14.63;7.35;;;;;;;;;;5010356;28;20021;-66
2022/03/16 02:02:51;;;;;;;17.13;7.50;;;;;;;;;;5010445;28;20381;-66
2022/03/16 02:05:16;;;;;;;16.65;7.55;;;;;;;;;;5010398;28;20029;-67
2022/03/16 02:07:43;;;;;;;16.35;7.63;;;;;;;;;;5010478;28;20495;-70
2022/03/16 02:10:09;;;;;;;19.27;7.75;;;;;;;;;;5010157;28;20022;-66
2022/03/16 02:12:42;;;;;;;20.00;8.02;;;;;;;;;;5010381;28;20398;-66
2022/03/16 02:15:08;;;;;;;14.40;7.20;;;;;;;;;;5009987;28;20437;-66
2022/03/16 02:17:33;;;;;;;15.60;6.47;;;;;;;;;;5010383;28;20037;-66
2022/03/16 02:19:59;;;;;;;13.60;7.28;;;;;;;;;;5010048;28;20022;-66
2022/03/16 02:22:24;;;;;;;14.30;7.07;;;;;;;;;;5010227;28;20041;-66
2022/03/16 02:24:50;;;;;;;16.88;7.55;;;;;;;;;;5010079;28;20485;-66
2022/03/16 02:27:15;;;;;;;16.75;7.32;;;;;;;;;;5010235;28;20072;-66
2022/03/16 02:29:41;;;;;;;11.75;6.35;;;;;;;;;;5010056;28;20077;-67
2022/03/16 02:32:06;;;;;;;13.15;6.90;;;;;;;;;;5009730;28;20014;-67
2022/03/16 02:34:32;;;;;;;15.63;7.15;;;;;;;;;;5010009;28;20022;-66
2022/03/16 02:36:57;;;;;;;13.60;6.85;;;;;;;;;;5010313;28;20473;-67
2022/03/16 02:39:23;;;;;;;12.02;6.97;;;;;;;;;;5010107;28;20105;-67
2022/03/16 02:41:50;;;;;;;14.23;6.72;;;;;;;;;;5010095;28;20026;-67
2022/03/16 02:44:16;;;;;;;15.05;6.97;;;;;;;;;;5009920;28;20069;-67
2022/03/16 02:46:41;;;;;;;13.90;6.63;;;;;;;;;;5009982;28;20029;-70
2022/03/16 02:49:07;;;;;;;14.27;6.70;;;;;;;;;;5009808;28;20037;-67
2022/03/16 02:51:32;;;;;;;12.70;6.57;;;;;;;;;;5009941;28;20030;-67
2022/03/16 02:53:57;;;;;;;14.90;6.53;;;;;;;;;;5009720;28;20469;-66
2022/03/16 02:56:27;;;;;;;14.02;6.93;;;;;;;;;;5010200;28;20022;-66
2022/03/16 02:58:53;;;;;;;12.85;6.50;;;;;;;;;;5009987;28;20084;-66
2022/03/16 03:01:18;;;;;;;13.02;6.80;;;;;;;;;;5009557;28;20030;-66
2022/03/16 03:03:43;;;;;;;14.00;6.70;;;;;;;;;;5010154;28;20048;-67
2022/03/16 03:06:09;;;;;;;15.13;6.05;;;;;;;;;;5009616;28;20029;-66
2022/03/16 03:08:34;;;;;;;14.10;7.00;;;;;;;;;;5009835;28;20188;-66
2022/03/16 03:11:00;;;;;;;15.70;6.00;;;;;;;;;;5009675;28;20105;-66
2022/03/16 03:13:26;;;;;;;15.48;5.90;;;;;;;;;;5009646;28;20030;-66
2022/03/16 03:15:52;;;;;;;11.60;6.60;;;;;;;;;;5009363;28;20453;-70
2022/03/16 03:18:17;;;;;;;15.07;6.55;;;;;;;;;;5009883;28;20026;-66
2022/03/16 03:20:42;;;;;;;12.10;6.10;;;;;;;;;;5009600;28;20034;-66
2022/03/16 03:23:08;;;;;;;14.48;5.85;;;;;;;;;;5009450;28;20113;-67
2022/03/16 03:25:33;;;;;;;17.13;6.13;;;;;;;;;;5009583;28;20044;-66
2022/03/16 03:27:59;;;;;;;13.98;6.38;;;;;;;;;;5009562;28;20021;-66
2022/03/16 03:30:24;;;;;;;17.73;6.30;;;;;;;;;;5009101;28;20037;-67
2022/03/16 03:32:50;;;;;;;13.27;6.28;;;;;;;;;;5011598;28;20022;-67
2022/03/16 03:35:15;;;;;;;11.63;6.32;;;;;;;;;;5012901;28;20121;-66
2022/03/16 03:37:41;;;;;;;12.88;6.63;;;;;;;;;;5013194;28;20032;-67
2022/03/16 03:40:07;;;;;;;15.35;6.95;;;;;;;;;;5012845;28;20026;-66
2022/03/16 03:42:32;;;;;;;12.57;6.47;;;;;;;;;;5013278;28;20033;-66
2022/03/16 03:44:58;;;;;;;16.17;6.63;;;;;;;;;;5012437;28;20036;-67
2022/03/16 03:47:23;;;;;;;16.45;6.72;;;;;;;;;;5012795;28;20025;-66
2022/03/16 03:49:48;;;;;;;14.77;7.10;;;;;;;;;;5012468;28;20030;-66
2022/03/16 03:52:14;;;;;;;13.40;6.25;;;;;;;;;;5012699;28;20296;-66
2022/03/16 03:54:40;;;;;;;13.00;6.40;;;;;;;;;;5012630;28;20037;-67
2022/03/16 03:57:06;;;;;;;13.63;6.07;;;;;;;;;;5012811;28;20026;-66
2022/03/16 03:59:32;;;;;;;16.15;6.28;;;;;;;;;;5012728;28;20026;-66
2022/03/16 04:01:57;;;;;;;14.27;6.05;;;;;;;;;;5012088;28;20053;-66
2022/03/16 04:04:23;;;;;;;14.07;6.38;;;;;;;;;;5012648;28;20489;-69
2022/03/16 04:06:48;;;;;;;13.18;6.63;;;;;;;;;;5012258;28;20417;-67
2022/03/16 04:09:14;;;;;;;10.80;6.32;;;;;;;;;;5012445;28;20025;-66
2022/03/16 04:11:39;;;;;;;14.40;6.05;;;;;;;;;;5012125;28;20137;-66
2022/03/16 04:14:06;;;;;;;15.85;6.80;;;;;;;;;;5012462;28;20030;-67
2022/03/16 04:16:31;;;;;;;14.55;6.13;;;;;;;;;;5012320;28;20084;-66
2022/03/16 04:18:57;;;;;;;10.85;5.45;;;;;;;;;;5012456;28;20038;-66
2022/03/16 04:21:26;;;;;;;25.38;7.00;;;;;;;;;;5012286;28;20033;-66
2022/03/16 04:23:52;;;;;;;18.85;5.75;;;;;;;;;;5011979;28;20042;-67
2022/03/16 04:26:18;;;;;;;12.23;5.40;;;;;;;;;;5011905;28;20029;-66
2022/03/16 04:28:43;;;;;;;11.82;5.70;;;;;;;;;;5012083;28;20032;-66
2022/03/16 04:31:09;;;;;;;14.80;6.15;;;;;;;;;;5011809;28;20121;-66
2022/03/16 04:33:34;;;;;;;13.75;5.88;;;;;;;;;;5011952;28;20057;-66
2022/03/16 04:36:00;;;;;;;15.70;6.30;;;;;;;;;;5011807;28;20037;-66
2022/03/16 04:38:25;;;;;;;15.90;6.13;;;;;;;;;;5012086;28;20105;-66
2022/03/16 04:40:51;;;;;;;23.20;6.30;;;;;;;;;;5011585;28;20033;-66
2022/03/16 04:43:16;;;;;;;17.02;6.22;;;;;;;;;;5010541;28;20486;-66
2022/03/16 04:45:43;;;;;;;12.43;5.93;;;;;;;;;;5011415;28;20084;-66
2022/03/16 04:48:10;;;;;;;14.25;6.32;;;;;;;;;;5011726;28;20554;-66
2022/03/16 04:50:35;;;;;;;12.93;5.60;;;;;;;;;;5011606;28;20053;-66
2022/03/16 04:53:02;;;;;;;14.40;6.28;;;;;;;;;;5011489;28;20033;-66
2022/03/16 04:55:27;;;;;;;15.85;6.80;;;;;;;;;;5011623;28;20033;-66
2022/03/16 04:57:53;;;;;;;13.38;6.30;;;;;;;;;;5011629;28;20034;-66
2022/03/16 05:00:18;;;;;;;14.95;6.38;;;;;;;;;;5011491;28;20034;-66
2022/03/16 05:02:44;;;;;;;12.77;6.55;;;;;;;;;;5011209;28;20531;-66
2022/03/16 05:05:12;;;;;;;12.25;6.18;;;;;;;;;;5011138;28;20033;-66
2022/03/16 05:07:38;;;;;;;11.90;5.85;;;;;;;;;;5011273;28;20061;-66
2022/03/16 05:10:05;;;;;;;11.25;6.00;;;;;;;;;;5011495;28;20057;-66
2022/03/16 05:12:41;;;;;;;11.50;6.22;;;;;;;;;;5011476;28;20068;-66
2022/03/16 05:15:09;;;;;;;13.02;6.05;;;;;;;;;;5011265;28;20032;-67
2022/03/16 05:17:35;;;;;;;13.55;5.85;;;;;;;;;;5011125;28;20057;-66
2022/03/16 05:20:01;;;;;;;13.65;6.80;;;;;;;;;;5011162;28;20475;-68
2022/03/16 05:22:26;;;;;;;11.82;6.22;;;;;;;;;;5011088;28;20037;-68
2022/03/16 05:24:51;;;;;;;15.20;5.82;;;;;;;;;;5010860;28;20026;-66
2022/03/16 05:27:20;;;;;;;13.20;6.13;;;;;;;;;;5011044;28;20488;-67
2022/03/16 05:29:46;;;;;;;10.45;5.97;;;;;;;;;;5011175;28;20061;-66
2022/03/16 05:32:11;;;;;;;11.38;6.00;;;;;;;;;;5010872;28;20060;-66
2022/03/16 05:34:37;;;;;;;15.63;6.30;;;;;;;;;;5010911;28;20054;-67
2022/03/16 05:37:03;;;;;;;11.43;5.90;;;;;;;;;;5010620;28;20022;-66
2022/03/16 05:39:28;;;;;;;11.20;6.07;;;;;;;;;;5010738;28;20026;-67
2022/03/16 05:41:54;;;;;;;19.80;6.70;;;;;;;;;;5010717;28;20030;-66
2022/03/16 05:44:19;;;;;;;12.43;6.38;;;;;;;;;;5010651;28;20026;-68
2022/03/16 05:46:45;;;;;;;17.30;6.78;;;;;;;;;;5010497;28;20400;-65
2022/03/16 05:49:10;;;;;;;13.98;6.57;;;;;;;;;;5010871;28;20041;-66
2022/03/16 05:51:36;;;;;;;12.85;6.38;;;;;;;;;;5010722;28;20072;-66
2022/03/16 05:54:01;;;;;;;12.73;6.15;;;;;;;;;;5010417;28;20033;-66
2022/03/16 05:56:27;;;;;;;11.60;6.45;;;;;;;;;;5010269;28;20033;-66
2022/03/16 05:58:52;;;;;;;10.57;6.07;;;;;;;;;;5010513;28;20040;-66
2022/03/16 06:01:17;;;;;;;14.55;6.47;;;;;;;;;;5010158;28;20061;-66
2022/03/16 06:03:43;;;;;;;13.73;6.35;;;;;;;;;;5010380;28;20040;-66
2022/03/16 06:06:08;;;;;;;10.75;6.25;;;;;;;;;;5025383;28;20437;-66
2022/03/16 06:08:34;;;;;;;14.88;6.60;;;;;;;;;;5010536;28;20477;-66
2022/03/16 06:10:59;;;;;;;14.55;6.30;;;;;;;;;;5010588;28;20398;-66
2022/03/16 06:13:25;;;;;;;12.00;5.70;;;;;;;;;;5010329;28;20029;-66
2022/03/16 06:15:50;;;;;;;15.68;7.47;;;;;;;;;;5009191;28;20041;-66
2022/03/16 06:18:16;;;;;;;13.73;6.95;;;;;;;;;;5010081;28;20026;-66
2022/03/16 06:20:41;;;;;;;15.25;6.70;;;;;;;;;;5010194;28;20172;-65
2022/03/16 06:23:08;;;;;;;17.30;6.90;;;;;;;;;;5009854;28;20443;-66
2022/03/16 06:25:34;;;;;;;13.45;6.20;;;;;;;;;;5010418;28;20053;-66
2022/03/16 06:28:00;;;;;;;13.57;6.50;;;;;;;;;;5009902;28;20022;-69
2022/03/16 06:30:26;;;;;;;12.90;6.55;;;;;;;;;;5010299;28;20037;-66
2022/03/16 06:32:51;;;;;;;17.27;6.60;;;;;;;;;;5009869;28;20486;-66
2022/03/16 06:35:17;;;;;;;11.90;6.43;;;;;;;;;;5010145;28;20042;-66
2022/03/16 06:37:43;;;;;;;14.20;6.60;;;;;;;;;;5009844;28;20534;-66
2022/03/16 06:40:10;;;;;;;12.90;6.30;;;;;;;;;;5009878;28;20018;-66
2022/03/16 06:42:46;;;;;;;15.75;6.65;;;;;;;;;;5009830;28;20113;-65
2022/03/16 06:45:12;;;;;;;12.63;6.63;;;;;;;;;;5009823;28;20586;-67
2022/03/16 06:47:38;;;;;;;13.65;6.43;;;;;;;;;;5009703;28;20104;-66
2022/03/16 06:50:05;;;;;;;16.60;6.55;;;;;;;;;;5010229;28;20034;-66
2022/03/16 06:52:31;;;;;;;15.82;6.55;;;;;;;;;;5010257;28;20026;-66
2022/03/16 06:54:56;;;;;;;10.43;5.70;;;;;;;;;;5009840;28;20025;-66
2022/03/16 06:57:22;;;;;;;13.95;5.70;;;;;;;;;;5009602;28;20022;-66
2022/03/16 06:59:47;;;;;;;13.82;5.88;;;;;;;;;;5009604;28;20029;-70
2022/03/16 07:02:13;;;;;;;14.70;5.63;;;;;;;;;;5009760;28;20022;-68
2022/03/16 07:04:38;;;;;;;12.40;6.22;;;;;;;;;;5009688;28;20026;-66
2022/03/16 07:07:04;;;;;;;15.30;6.07;;;;;;;;;;5010623;28;20112;-66
2022/03/16 07:09:32;;;;;;;12.07;5.93;;;;;;;;;;5013720;28;20041;-71
2022/03/16 07:11:58;;;;;;;14.63;6.10;;;;;;;;;;5013455;28;20030;-66
2022/03/16 07:14:32;;;;;;;16.92;5.93;;;;;;;;;;5013340;28;20033;-70
2022/03/16 07:16:59;;;;;;;14.43;6.25;;;;;;;;;;5013115;28;20029;-66
2022/03/16 07:19:24;;;;;;;15.27;6.38;;;;;;;;;;5013115;28;20068;-66
2022/03/16 07:21:50;;;;;;;11.40;6.10;;;;;;;;;;5013178;28;20091;-66
2022/03/16 07:24:15;;;;;;;15.05;6.35;;;;;;;;;;5013134;28;20051;-69
2022/03/16 07:26:41;;;;;;;19.00;6.10;;;;;;;;;;5013267;28;20375;-66
2022/03/16 07:29:06;;;;;;;13.60;5.97;;;;;;;;;;5013157;28;20037;-67
2022/03/16 07:31:32;;;;;;;17.13;6.43;;;;;;;;;;5013234;28;20030;-66
2022/03/16 07:33:57;;;;;;;14.23;6.15;;;;;;;;;;5012736;28;20061;-70
2022/03/16 07:36:23;;;;;;;19.73;6.43;;;;;;;;;;5012869;28;20104;-70
2022/03/16 07:38:49;;;;;;;12.80;5.20;;;;;;;;;;5012722;28;20030;-71
2022/03/16 07:41:15;;;;;;;18.10;6.10;;;;;;;;;;5013021;28;20491;-66
2022/03/16 07:43:41;;;;;;;14.02;6.05;;;;;;;;;;5012796;28;20445;-66
2022/03/16 07:46:06;;;;;;;12.93;5.80;;;;;;;;;;5012940;28;20063;-67
2022/03/16 07:48:34;;;;;;;13.65;5.90;;;;;;;;;;5012663;28;20054;-66
2022/03/16 07:51:00;;;;;;;13.52;5.80;;;;;;;;;;5013091;28;20030;-70
2022/03/16 07:53:25;;;;;;;12.27;6.25;;;;;;;;;;5012463;28;20093;-66
2022/03/16 07:55:55;;;;;;;12.02;5.57;;;;;;;;;;5012835;28;20037;-66
2022/03/16 07:58:21;;;;;;;10.77;5.50;;;;;;;;;;5012240;28;20402;-66
2022/03/16 08:00:46;;;;;;;13.35;5.75;;;;;;;;;;5012498;28;20473;-66
2022/03/16 08:03:13;;;;;;;13.07;5.60;;;;;;;;;;5012161;28;20413;-65
2022/03/16 08:05:39;;;;;;;16.25;5.25;;;;;;;;;;5012537;28;20041;-66
2022/03/16 08:08:05;;;;;;;16.13;5.65;;;;;;;;;;5012627;28;20026;-66
2022/03/16 08:10:30;;;;;;;15.75;5.13;;;;;;;;;;5012634;28;20539;-65
2022/03/16 08:12:56;;;;;;;13.27;5.45;;;;;;;;;;5012418;28;20076;-65
2022/03/16 08:15:22;;;;;;;12.43;4.78;;;;;;;;;;5012453;28;20105;-66
2022/03/16 08:17:47;;;;;;;13.95;5.00;;;;;;;;;;5011836;28;20036;-66
2022/03/16 08:20:12;;;;;;;13.80;4.88;;;;;;;;;;5012281;28;20026;-65
2022/03/16 08:22:38;;;;;;;14.40;4.90;;;;;;;;;;5012340;28;20110;-66
2022/03/16 08:25:06;;;;;;;13.20;5.28;;;;;;;;;;5012150;28;20025;-66
2022/03/16 08:27:32;;;;;;;12.60;3.80;;;;;;;;;;5012105;28;20030;-66
2022/03/16 08:29:57;;;;;;;8.10;3.55;;;;;;;;;;5012299;28;20100;-66
2022/03/16 08:32:23;;;;;;;14.50;3.85;;;;;;;;;;5011989;28;20050;-65
2022/03/16 08:34:49;;;;;;;12.93;3.80;;;;;;;;;;5011402;28;20449;-66
2022/03/16 08:37:14;;;;;;;9.85;3.25;;;;;;;;;;5012113;28;20056;-66
2022/03/16 08:39:41;;;;;;;13.63;3.58;;;;;;;;;;5012191;28;20084;-66
2022/03/16 08:42:07;;;;;;;7.30;3.13;;;;;;;;;;5012546;28;20472;-66
2022/03/16 08:44:33;;;;;;;10.10;4.00;;;;;;;;;;5011486;28;20393;-67
2022/03/16 08:46:58;;;;;;;8.35;3.65;;;;;;;;;;5011625;28;20462;-66
2022/03/16 08:49:24;;;;;;;15.30;3.75;;;;;;;;;;5011807;28;20456;-66
2022/03/16 08:51:50;;;;;;;11.82;3.30;;;;;;;;;;5011910;28;20064;-66
2022/03/16 08:54:16;;;;;;;10.25;3.70;;;;;;;;;;5011227;28;20557;-66
2022/03/16 08:56:43;;;;;;;11.65;3.42;;;;;;;;;;5011658;28;20068;-66
2022/03/16 08:59:09;;;;;;;12.77;3.17;;;;;;;;;;5011392;28;20489;-68
2022/03/16 09:01:35;;;;;;;9.30;3.25;;;;;;;;;;5011539;28;20386;-66
2022/03/16 09:04:01;;;;;;;8.48;3.20;;;;;;;;;;5011236;28;20497;-66
2022/03/16 09:06:27;;;;;;;10.07;3.20;;;;;;;;;;5011549;28;20486;-66
2022/03/16 09:08:53;;;;;;;11.52;3.30;;;;;;;;;;5011167;28;20030;-66
2022/03/16 09:11:18;;;;;;;7.95;3.17;;;;;;;;;;5011339;28;20022;-67
2022/03/16 09:13:44;;;;;;;13.65;3.70;;;;;;;;;;5010846;28;20045;-67
2022/03/16 09:16:09;;;;;;;9.07;3.17;;;;;;;;;;5011093;28;20467;-66
2022/03/16 09:18:35;;;;;;;11.45;3.53;;;;;;;;;;5010992;28;20037;-66
2022/03/16 09:21:01;;;;;;;10.32;3.50;;;;;;;;;;5011294;28;20040;-68
2022/03/16 09:23:31;;;;;;;9.60;3.15;;;;;;;;;;5009909;28;20026;-66
2022/03/16 09:26:00;;;;;;;8.95;3.20;;;;;;;;;;5011390;28;20033;-66
2022/03/16 09:28:26;;;;;;;10.98;3.30;;;;;;;;;;5010653;28;20418;-66
2022/03/16 09:30:52;;;;;;;14.82;3.47;;;;;;;;;;5010236;28;20053;-66
2022/03/16 09:33:18;;;;;;;11.75;3.10;;;;;;;;;;5010977;28;20037;-66
2022/03/16 09:35:44;;;;;;;9.57;3.25;;;;;;;;;;5010578;28;20572;-66
2022/03/16 09:38:12;;;;;;;7.32;3.22;;;;;;;;;;5010948;28;20053;-66
2022/03/16 09:40:38;;;;;;;12.48;3.55;;;;;;;;;;5011011;28;20035;-66
2022/03/16 09:43:10;;;;;;;13.20;4.15;;;;;;;;;;5010731;28;20030;-66
2022/03/16 09:45:55;;;;;;;11.63;3.55;;;;;;;;;;5010726;28;20026;-67
2022/03/16 09:48:23;;;;;;;10.35;3.38;;;;;;;;;;5010583;28;20021;-66
2022/03/16 09:50:53;;;;;;;13.88;3.50;;;;;;;;;;5010399;28;20037;-66
2022/03/16 09:53:20;;;;;;;10.68;3.60;;;;;;;;;;5010684;28;20482;-66
2022/03/16 09:55:46;;;;;;;14.23;3.90;;;;;;;;;;5010175;28;20080;-67
2022/03/16 09:58:11;;;;;;;11.95;3.40;;;;;;;;;;5010699;28;20118;-66
2022/03/16 10:00:38;;;;;;;11.30;3.30;;;;;;;;;;5010293;28;20049;-67
2022/03/16 10:03:04;;;;;;;19.25;4.25;;;;;;;;;;5010566;28;20035;-68
2022/03/16 10:05:30;;;;;;;14.57;3.47;;;;;;;;;;5010193;28;20022;-66
2022/03/16 10:07:59;;;;;;;9.55;3.45;;;;;;;;;;5010513;28;20049;-66
2022/03/16 10:13:24;;;;;;;19.88;4.30;;;;;;;;;;5010517;28;20077;-66
2022/03/16 10:15:52;;;;;;;11.65;3.72;;;;;;;;;;5010087;28;20030;-66
2022/03/16 10:18:20;;;;;;;14.45;3.97;;;;;;;;;;5010398;28;20038;-65
2022/03/16 10:20:46;;;;;;;19.23;3.90;;;;;;;;;;5010445;28;20299;-66
2022/03/16 10:23:14;;;;;;;14.68;3.53;;;;;;;;;;5010620;28;20125;-67
2022/03/16 10:25:54;;;;;;;21.80;3.85;;;;;;;;;;5009798;28;20509;-66
2022/03/16 10:28:28;;;;;;;14.33;3.47;;;;;;;;;;5010255;28;20029;-67
2022/03/16 10:31:06;;;;;;;16.27;3.67;;;;;;;;;;5009717;28;20083;-66
2022/03/16 10:33:33;;;;;;;13.60;3.78;;;;;;;;;;5010275;28;20018;-66
2022/03/16 10:36:08;;;;;;;15.68;3.90;;;;;;;;;;5009777;28;20050;-69
2022/03/16 10:38:45;;;;;;;19.08;3.83;;;;;;;;;;5010405;28;20034;-66
2022/03/16 10:41:14;;;;;;;15.80;3.25;;;;;;;;;;5011440;28;20551;-67
2022/03/16 10:46:38;;;;;;;18.33;3.70;;;;;;;;;;5013646;28;20402;-65
2022/03/16 10:49:09;;;;;;;21.65;4.10;;;;;;;;;;5013946;28;20022;-66
2022/03/16 10:51:35;;;;;;;19.17;3.92;;;;;;;;;;5014217;28;20014;-66
2022/03/16 10:54:02;;;;;;;18.95;4.03;;;;;;;;;;5014185;28;20026;-66
2022/03/16 10:56:28;;;;;;;19.63;3.85;;;;;;;;;;5014057;28;20022;-66
2022/03/16 10:58:55;;;;;;;20.15;4.05;;;;;;;;;;5014633;28;20030;-65
2022/03/16 11:01:22;;;;;;;18.40;3.65;;;;;;;;;;5013700;28;20030;-66
2022/03/16 11:03:49;;;;;;;17.83;3.70;;;;;;;;;;5014350;28;20030;-66
2022/03/16 11:06:16;;;;;;;19.48;3.95;;;;;;;;;;5013335;28;20034;-66
2022/03/16 11:08:43;;;;;;;16.35;3.90;;;;;;;;;;5013572;28;20284;-66
2022/03/16 11:13:54;;;;;;;16.85;4.07;;;;;;;;;;5013615;28;20037;-66
2022/03/16 11:16:20;;;;;;;16.98;3.83;;;;;;;;;;5013505;28;20030;-66
2022/03/16 11:18:50;;;;;;;21.73;4.30;;;;;;;;;;5013572;28;20030;-66
2022/03/16 11:21:23;;;;;;;17.70;4.28;;;;;;;;;;5013182;28;20464;-66
2022/03/16 11:27:12;;;;;;;10.73;3.20;;;;;;;;;;5013011;28;20080;-66
2022/03/16 11:29:44;;;;;;;15.05;3.53;;;;;;;;;;5012828;28;20037;-66
2022/03/16 11:32:12;;;;;;;23.15;3.35;;;;;;;;;;5013162;28;20033;-66
2022/03/16 11:34:38;;;;;;;13.50;3.60;;;;;;;;;;5013005;28;20041;-66
2022/03/16 11:37:12;;;;;;;17.73;3.80;;;;;;;;;;5013013;28;20018;-70
2022/03/16 11:39:46;;;;;;;14.32;3.45;;;;;;;;;;5013438;28;20065;-66
2022/03/16 11:42:18;;;;;;;16.33;3.42;;;;;;;;;;5013098;28;20028;-66
2022/03/16 11:44:45;;;;;;;15.60;3.53;;;;;;;;;;5012426;28;20038;-69
2022/03/16 11:47:10;;;;;;;13.07;3.30;;;;;;;;;;5012762;28;20034;-65
2022/03/16 11:50:08;;;;;;;16.80;4.05;;;;;;;;;;5012835;28;20107;-67
2022/03/16 11:53:04;;;;;;;20.92;3.95;;;;;;;;;;5008322;28;20117;-66
2022/03/16 11:55:39;;;;;;;14.50;3.50;;;;;;;;;;5012410;28;20097;-66
2022/03/16 11:58:25;;;;;;;17.55;3.67;;;;;;;;;;5012752;28;20034;-68
2022/03/16 12:01:42;;;;;;;17.70;3.90;;;;;;;;;;5012366;28;20038;-67
2022/03/16 12:04:11;;;;;;;19.98;3.92;;;;;;;;;;5000175;28;20272;-70
2022/03/16 12:07:02;;;;;;;20.13;4.17;;;;;;;;;;5012195;28;20501;-67
2022/03/16 12:09:45;;;;;;;15.43;3.92;;;;;;;;;;5012571;28;20033;-66
2022/03/16 12:15:22;;;;;;;19.52;3.80;;;;;;;;;;5012239;28;20057;-66
2022/03/16 12:17:56;;;;;;;19.52;3.72;;;;;;;;;;5012923;28;20157;-70
2022/03/16 12:20:21;;;;;;;15.40;3.72;;;;;;;;;;5012020;28;20030;-70
2022/03/16 12:22:49;;;;;;;22.70;4.22;;;;;;;;;;5027332;28;20156;-70
2022/03/16 12:25:26;;;;;;;13.45;3.35;;;;;;;;;;5011812;28;20018;-67
2022/03/16 12:30:43;;;;;;;12.63;3.10;;;;;;;;;;5011636;28;20095;-70
2022/03/16 12:33:20;;;;;;;15.85;3.42;;;;;;;;;;5012149;28;20022;-67
2022/03/16 12:35:47;;;;;;;15.35;3.67;;;;;;;;;;5011560;28;20069;-67
2022/03/16 12:38:12;;;;;;;18.23;4.10;;;;;;;;;;5011967;28;20544;-67
2022/03/16 12:43:27;;;;;;;22.58;4.63;;;;;;;;;;5011927;28;20030;-67
2022/03/16 12:46:12;;;;;;;16.73;4.00;;;;;;;;;;5011304;28;20033;-67
2022/03/16 12:48:38;;;;;;;17.05;3.67;;;;;;;;;;5011669;28;20036;-70
2022/03/16 12:51:04;;;;;;;18.58;4.13;;;;;;;;;;5011669;28;20029;-67
2022/03/16 12:53:48;;;;;;;15.02;3.67;;;;;;;;;;5011931;28;20057;-66
2022/03/16 12:56:17;;;;;;;17.90;3.42;;;;;;;;;;5011642;28;20104;-67
2022/03/16 12:58:53;;;;;;;22.17;4.25;;;;;;;;;;5012008;28;20036;-67
2022/03/16 13:01:20;;;;;;;14.63;3.80;;;;;;;;;;5011027;28;20030;-67
2022/03/16 13:03:45;;;;;;;17.75;4.07;;;;;;;;;;5011043;28;20026;-66
2022/03/16 13:06:18;;;;;;;15.15;3.70;;;;;;;;;;5010459;28;20022;-67
2022/03/16 13:08:52;;;;;;;19.67;3.60;;;;;;;;;;5011408;28;20084;-66
2022/03/16 13:11:26;;;;;;;19.08;4.07;;;;;;;;;;5011299;28;20469;-66
2022/03/16 13:14:06;;;;;;;18.42;4.40;;;;;;;;;;5011400;28;20382;-66
2022/03/16 13:16:40;;;;;;;20.80;3.97;;;;;;;;;;5010964;28;20026;-67
2022/03/16 13:19:32;;;;;;;21.90;3.80;;;;;;;;;;5011280;28;20568;-67
2022/03/16 13:22:03;;;;;;;18.30;4.28;;;;;;;;;;5011061;28;20398;-66
2022/03/16 13:24:42;;;;;;;19.85;3.90;;;;;;;;;;5010972;28;20382;-67
2022/03/16 13:27:18;;;;;;;18.08;4.35;;;;;;;;;;5087379;27;20518;-67
2022/03/16 13:29:49;;;;;;;23.05;4.93;;;;;;;;;;5087470;28;20063;-67
2022/03/16 13:32:16;;;;;;;21.13;4.38;;;;;;;;;;5087308;28;20024;-67
2022/03/16 13:34:43;;;;;;;19.77;4.20;;;;;;;;;;5087542;28;20024;-67
2022/03/16 13:37:26;;;;;;;19.40;4.13;;;;;;;;;;5086865;28;20095;-67
2022/03/16 13:40:11;;;;;;;18.45;4.03;;;;;;;;;;5085969;28;20029;-66
2022/03/16 13:42:38;;;;;;;17.10;3.92;;;;;;;;;;5087552;28;20046;-67
2022/03/16 13:45:11;;;;;;;17.75;3.80;;;;;;;;;;5086982;28;20093;-66
2022/03/16 13:47:36;;;;;;;22.38;4.07;;;;;;;;;;5086750;28;20032;-66
2022/03/16 13:50:02;;;;;;;18.50;3.70;;;;;;;;;;5087540;28;20028;-66
2022/03/16 13:52:34;;;;;;;16.35;4.40;;;;;;;;;;5087111;28;20055;-67
2022/03/16 13:55:14;;;;;;;24.50;4.25;;;;;;;;;;5087170;28;20537;-68
2022/03/16 13:57:43;;;;;;;18.52;3.90;;;;;;;;;;5086375;28;20396;-69
2022/03/16 14:00:11;;;;;;;19.67;3.95;;;;;;;;;;5086878;28;20032;-67
2022/03/16 14:02:36;;;;;;;15.68;3.60;;;;;;;;;;5086602;28;20238;-68
2022/03/16 14:05:05;;;;;;;18.60;3.78;;;;;;;;;;5086900;28;20318;-68
2022/03/16 14:07:43;;;;;;;19.90;3.88;;;;;;;;;;5086379;28;20422;-67
2022/03/16 14:10:09;;;;;;;20.55;3.88;;;;;;;;;;5086842;28;20103;-67
2022/03/16 14:12:36;;;;;;;18.23;4.50;;;;;;;;;;5086700;28;20043;-66
2022/03/16 14:15:16;;;;;;;16.42;4.05;;;;;;;;;;5086479;28;20020;-67
2022/03/16 14:17:44;;;;;;;18.90;4.15;;;;;;;;;;5086197;28;20023;-68
2022/03/16 14:20:18;;;;;;;20.63;3.90;;;;;;;;;;5086313;28;20155;-67
2022/03/16 14:22:45;;;;;;;20.88;4.50;;;;;;;;;;5086565;28;20116;-67
2022/03/16 14:25:16;;;;;;;19.13;4.25;;;;;;;;;;5086263;28;20119;-68
2022/03/16 14:27:41;;;;;;;20.30;4.03;;;;;;;;;;5086054;28;20031;-67
2022/03/16 14:30:07;;;;;;;24.75;4.15;;;;;;;;;;5086709;28;20028;-68
2022/03/16 14:32:32;;;;;;;16.60;3.67;;;;;;;;;;5085927;28;20020;-67
2022/03/16 14:34:58;;;;;;;22.02;4.60;;;;;;;;;;5086315;28;20022;-68
2022/03/16 14:37:23;;;;;;;20.63;4.43;;;;;;;;;;5079166;28;20035;-68
2022/03/16 14:39:50;;;;;;;18.83;3.83;;;;;;;;;;5072774;28;20021;-68
2022/03/16 14:42:16;;;;;;;19.95;3.67;;;;;;;;;;5072759;28;20043;-67
2022/03/16 14:44:41;;;;;;;18.08;4.00;;;;;;;;;;5072379;28;20055;-68
2022/03/16 14:47:07;;;;;;;20.33;3.60;;;;;;;;;;5072225;28;20076;-68
2022/03/16 14:49:32;;;;;;;17.70;4.18;;;;;;;;;;5072714;28;20055;-67
2022/03/16 14:51:58;;;;;;;22.73;4.22;;;;;;;;;;5072446;28;20016;-67
2022/03/16 14:54:24;;;;;;;16.40;4.00;;;;;;;;;;5072484;28;20023;-67